sensor_id;sensor_type;location;lat;lon;timestamp;pressure;altitude;pressure_sealevel;temperature
71630;BMP280;59479;51.902;8.212;2023-03-01T00:02:15;102550.44;;;1.89
71630;BMP280;59479;51.902;8.212;2023-03-01T00:04:41;102550.06;;;1.83
71630;BMP280;59479;51.902;8.212;2023-03-01T00:07:06;102546.44;;;1.78
71630;BMP280;59479;51.902;8.212;2023-03-01T00:09:31;102546.97;;;1.74
71630;BMP280;59479;51.902;8.212;2023-03-01T00:11:57;102546.81;;;1.71
71630;BMP280;59479;51.902;8.212;2023-03-01T00:14:22;102548.13;;;1.67
71630;BMP280;59479;51.902;8.212;2023-03-01T00:16:48;102544.13;;;1.68
71630;BMP280;59479;51.902;8.212;2023-03-01T00:19:16;102549.81;;;1.67
71630;BMP280;59479;51.902;8.212;2023-03-01T00:21:42;102549.81;;;1.67
71630;BMP280;59479;51.902;8.212;2023-03-01T00:24:08;102554.56;;;1.65
71630;BMP280;59479;51.902;8.212;2023-03-01T00:26:34;102543.81;;;1.64
71630;BMP280;59479;51.902;8.212;2023-03-01T00:28:59;102550.94;;;1.60
71630;BMP280;59479;51.902;8.212;2023-03-01T00:31:28;102553.03;;;1.54
71630;BMP280;59479;51.902;8.212;2023-03-01T00:34:02;102545.38;;;1.51
71630;BMP280;59479;51.902;8.212;2023-03-01T00:36:33;102543.38;;;1.45
71630;BMP280;59479;51.902;8.212;2023-03-01T00:38:59;102547.22;;;1.53
71630;BMP280;59479;51.902;8.212;2023-03-01T00:41:24;102546.81;;;1.47
71630;BMP280;59479;51.902;8.212;2023-03-01T00:43:51;102545.84;;;1.45
71630;BMP280;59479;51.902;8.212;2023-03-01T00:46:20;102536.19;;;1.37
71630;BMP280;59479;51.902;8.212;2023-03-01T00:48:45;102535.31;;;1.36
71630;BMP280;59479;51.902;8.212;2023-03-01T00:51:16;102531.03;;;1.34
71630;BMP280;59479;51.902;8.212;2023-03-01T00:53:42;102536.00;;;1.34
71630;BMP280;59479;51.902;8.212;2023-03-01T00:56:13;102531.13;;;1.35
71630;BMP280;59479;51.902;8.212;2023-03-01T00:58:39;102537.72;;;1.35
71630;BMP280;59479;51.902;8.212;2023-03-01T01:01:28;102542.75;;;1.36
71630;BMP280;59479;51.902;8.212;2023-03-01T01:03:57;102542.69;;;1.35
71630;BMP280;59479;51.902;8.212;2023-03-01T01:06:28;102536.84;;;1.34
71630;BMP280;59479;51.902;8.212;2023-03-01T01:08:55;102532.94;;;1.38
71630;BMP280;59479;51.902;8.212;2023-03-01T01:11:22;102533.41;;;1.32
71630;BMP280;59479;51.902;8.212;2023-03-01T01:13:48;102532.56;;;1.32
71630;BMP280;59479;51.902;8.212;2023-03-01T01:16:16;102525.03;;;1.30
71630;BMP280;59479;51.902;8.212;2023-03-01T01:18:42;102525.59;;;1.26
71630;BMP280;59479;51.902;8.212;2023-03-01T01:21:10;102523.75;;;1.24
71630;BMP280;59479;51.902;8.212;2023-03-01T01:23:36;102525.91;;;1.20
71630;BMP280;59479;51.902;8.212;2023-03-01T01:26:11;102505.91;;;1.17
71630;BMP280;59479;51.902;8.212;2023-03-01T01:28:38;102513.25;;;1.15
71630;BMP280;59479;51.902;8.212;2023-03-01T01:31:04;102516.47;;;1.14
71630;BMP280;59479;51.902;8.212;2023-03-01T01:33:29;102513.03;;;1.12
71630;BMP280;59479;51.902;8.212;2023-03-01T01:35:55;102512.19;;;1.12
71630;BMP280;59479;51.902;8.212;2023-03-01T01:38:20;102503.25;;;1.14
71630;BMP280;59479;51.902;8.212;2023-03-01T01:40:46;102503.13;;;1.12
71630;BMP280;59479;51.902;8.212;2023-03-01T01:43:32;102494.66;;;1.09
71630;BMP280;59479;51.902;8.212;2023-03-01T01:46:14;102499.59;;;1.09
71630;BMP280;59479;51.902;8.212;2023-03-01T01:48:47;102502.53;;;1.03
71630;BMP280;59479;51.902;8.212;2023-03-01T01:51:16;102502.31;;;1.00
71630;BMP280;59479;51.902;8.212;2023-03-01T01:53:45;102492.41;;;1.00
71630;BMP280;59479;51.902;8.212;2023-03-01T01:56:12;102490.69;;;0.99
71630;BMP280;59479;51.902;8.212;2023-03-01T01:58:38;102497.06;;;0.96
71630;BMP280;59479;51.902;8.212;2023-03-01T02:01:05;102487.16;;;0.96
71630;BMP280;59479;51.902;8.212;2023-03-01T02:03:33;102487.59;;;0.90
71630;BMP280;59479;51.902;8.212;2023-03-01T02:08:45;102485.47;;;0.83
71630;BMP280;59479;51.902;8.212;2023-03-01T02:11:13;102486.34;;;0.84
71630;BMP280;59479;51.902;8.212;2023-03-01T02:13:40;102487.97;;;0.83
71630;BMP280;59479;51.902;8.212;2023-03-01T02:16:11;102490.84;;;0.78
71630;BMP280;59479;51.902;8.212;2023-03-01T02:18:38;102487.31;;;0.75
71630;BMP280;59479;51.902;8.212;2023-03-01T02:23:30;102480.66;;;0.74
71630;BMP280;59479;51.902;8.212;2023-03-01T02:26:04;102483.03;;;0.72
71630;BMP280;59479;51.902;8.212;2023-03-01T02:28:35;102478.53;;;0.67
71630;BMP280;59479;51.902;8.212;2023-03-01T02:31:03;102486.03;;;0.68
71630;BMP280;59479;51.902;8.212;2023-03-01T02:33:47;102481.75;;;0.66
71630;BMP280;59479;51.902;8.212;2023-03-01T02:36:31;102474.78;;;0.60
71630;BMP280;59479;51.902;8.212;2023-03-01T02:38:59;102491.03;;;0.57
71630;BMP280;59479;51.902;8.212;2023-03-01T02:41:28;102486.84;;;0.56
71630;BMP280;59479;51.902;8.212;2023-03-01T02:43:56;102483.41;;;0.54
71630;BMP280;59479;51.902;8.212;2023-03-01T02:46:24;102486.72;;;0.54
71630;BMP280;59479;51.902;8.212;2023-03-01T02:48:55;102491.47;;;0.51
71630;BMP280;59479;51.902;8.212;2023-03-01T02:51:56;102482.44;;;0.52
71630;BMP280;59479;51.902;8.212;2023-03-01T02:54:33;102478.97;;;0.50
71630;BMP280;59479;51.902;8.212;2023-03-01T02:57:01;102479.53;;;0.46
71630;BMP280;59479;51.902;8.212;2023-03-01T02:59:31;102479.31;;;0.43
71630;BMP280;59479;51.902;8.212;2023-03-01T03:02:00;102468.69;;;0.44
71630;BMP280;59479;51.902;8.212;2023-03-01T03:04:26;102473.41;;;0.41
71630;BMP280;59479;51.902;8.212;2023-03-01T03:06:51;102465.78;;;0.38
71630;BMP280;59479;51.902;8.212;2023-03-01T03:09:17;102465.66;;;0.37
71630;BMP280;59479;51.902;8.212;2023-03-01T03:11:43;102467.28;;;0.36
71630;BMP280;59479;51.902;8.212;2023-03-01T03:14:10;102469.53;;;0.33
71630;BMP280;59479;51.902;8.212;2023-03-01T03:16:50;102469.47;;;0.32
71630;BMP280;59479;51.902;8.212;2023-03-01T03:19:16;102458.59;;;0.30
71630;BMP280;59479;51.902;8.212;2023-03-01T03:21:42;102461.72;;;0.27
71630;BMP280;59479;51.902;8.212;2023-03-01T03:24:08;102448.50;;;0.27
71630;BMP280;59479;51.902;8.212;2023-03-01T03:26:33;102449.81;;;0.22
71630;BMP280;59479;51.902;8.212;2023-03-01T03:28:59;102448.69;;;0.18
71630;BMP280;59479;51.902;8.212;2023-03-01T03:31:24;102443.25;;;0.22
71630;BMP280;59479;51.902;8.212;2023-03-01T03:33:49;102451.41;;;0.21
71630;BMP280;59479;51.902;8.212;2023-03-01T03:36:21;102448.69;;;0.18
71630;BMP280;59479;51.902;8.212;2023-03-01T03:38:46;102437.84;;;0.16
71630;BMP280;59479;51.902;8.212;2023-03-01T03:41:12;102440.13;;;0.13
71630;BMP280;59479;51.902;8.212;2023-03-01T03:43:39;102439.03;;;0.10
71630;BMP280;59479;51.902;8.212;2023-03-01T03:46:06;102442.91;;;0.06
71630;BMP280;59479;51.902;8.212;2023-03-01T03:48:38;102440.56;;;0.08
71630;BMP280;59479;51.902;8.212;2023-03-01T03:51:03;102428.31;;;0.09
71630;BMP280;59479;51.902;8.212;2023-03-01T03:53:32;102432.19;;;0.06
71630;BMP280;59479;51.902;8.212;2023-03-01T03:55:58;102431.44;;;0.07
71630;BMP280;59479;51.902;8.212;2023-03-01T03:58:25;102428.84;;;0.05
71630;BMP280;59479;51.902;8.212;2023-03-01T04:00:53;102432.06;;;0.04
71630;BMP280;59479;51.902;8.212;2023-03-01T04:03:19;102439.25;;;0.01
71630;BMP280;59479;51.902;8.212;2023-03-01T04:05:46;102426.16;;;0.02
71630;BMP280;59479;51.902;8.212;2023-03-01T04:08:11;102427.91;;;0.03
71630;BMP280;59479;51.902;8.212;2023-03-01T04:10:39;102421.66;;;-0.03
71630;BMP280;59479;51.902;8.212;2023-03-01T04:13:06;102423.16;;;-0.05
71630;BMP280;59479;51.902;8.212;2023-03-01T04:15:32;102431.97;;;-0.08
71630;BMP280;59479;51.902;8.212;2023-03-01T04:17:58;102428.31;;;-0.13
71630;BMP280;59479;51.902;8.212;2023-03-01T04:20:26;102423.47;;;-0.12
71630;BMP280;59479;51.902;8.212;2023-03-01T04:22:56;102423.38;;;-0.13
71630;BMP280;59479;51.902;8.212;2023-03-01T04:25:23;102428.13;;;-0.16
71630;BMP280;59479;51.902;8.212;2023-03-01T04:27:48;102429.81;;;-0.15
71630;BMP280;59479;51.902;8.212;2023-03-01T04:30:14;102423.06;;;-0.18
71630;BMP280;59479;51.902;8.212;2023-03-01T04:32:39;102420.59;;;-0.18
71630;BMP280;59479;51.902;8.212;2023-03-01T04:35:05;102424.75;;;-0.17
71630;BMP280;59479;51.902;8.212;2023-03-01T04:37:30;102425.19;;;-0.22
71630;BMP280;59479;51.902;8.212;2023-03-01T04:39:56;102432.63;;;-0.22
71630;BMP280;59479;51.902;8.212;2023-03-01T04:42:21;102443.28;;;-0.23
71630;BMP280;59479;51.902;8.212;2023-03-01T04:44:46;102434.13;;;-0.24
71630;BMP280;59479;51.902;8.212;2023-03-01T04:47:12;102434.84;;;-0.25
71630;BMP280;59479;51.902;8.212;2023-03-01T04:49:37;102436.47;;;-0.26
71630;BMP280;59479;51.902;8.212;2023-03-01T04:52:03;102436.38;;;-0.27
71630;BMP280;59479;51.902;8.212;2023-03-01T04:54:31;102433.69;;;-0.30
71630;BMP280;59479;51.902;8.212;2023-03-01T04:56:57;102427.03;;;-0.31
71630;BMP280;59479;51.902;8.212;2023-03-01T04:59:23;102422.59;;;-0.35
71630;BMP280;59479;51.902;8.212;2023-03-01T05:01:50;102427.78;;;-0.32
71630;BMP280;59479;51.902;8.212;2023-03-01T05:04:15;102422.53;;;-0.37
71630;BMP280;59479;51.902;8.212;2023-03-01T05:06:40;102429.72;;;-0.40
71630;BMP280;59479;51.902;8.212;2023-03-01T05:09:06;102425.75;;;-0.38
71630;BMP280;59479;51.902;8.212;2023-03-01T05:11:31;102423.16;;;-0.39
71630;BMP280;59479;51.902;8.212;2023-03-01T05:14:08;102423.81;;;-0.42
71630;BMP280;59479;51.902;8.212;2023-03-01T05:16:34;102421.34;;;-0.42
71630;BMP280;59479;51.902;8.212;2023-03-01T05:19:01;102421.41;;;-0.40
71630;BMP280;59479;51.902;8.212;2023-03-01T05:21:34;102424.88;;;-0.38
71630;BMP280;59479;51.902;8.212;2023-03-01T05:24:20;102412.94;;;-0.43
71630;BMP280;59479;51.902;8.212;2023-03-01T05:26:45;102425.19;;;-0.45
71630;BMP280;59479;51.902;8.212;2023-03-01T05:29:13;102419.28;;;-0.47
71630;BMP280;59479;51.902;8.212;2023-03-01T05:31:38;102420.78;;;-0.49
71630;BMP280;59479;51.902;8.212;2023-03-01T05:34:03;102415.63;;;-0.52
71630;BMP280;59479;51.902;8.212;2023-03-01T05:36:29;102414.88;;;-0.51
71630;BMP280;59479;51.902;8.212;2023-03-01T05:38:55;102417.34;;;-0.51
71630;BMP280;59479;51.902;8.212;2023-03-01T05:41:20;102419.09;;;-0.50
71630;BMP280;59479;51.902;8.212;2023-03-01T05:43:46;102415.63;;;-0.52
71630;BMP280;59479;51.902;8.212;2023-03-01T05:46:11;102413.69;;;-0.56
71630;BMP280;59479;51.902;8.212;2023-03-01T05:48:38;102414.53;;;-0.55
71630;BMP280;59479;51.902;8.212;2023-03-01T05:51:04;102419.38;;;-0.57
71630;BMP280;59479;51.902;8.212;2023-03-01T05:53:29;102411.94;;;-0.57
71630;BMP280;59479;51.902;8.212;2023-03-01T05:55:55;102403.34;;;-0.62
71630;BMP280;59479;51.902;8.212;2023-03-01T05:58:20;102410.03;;;-0.61
71630;BMP280;59479;51.902;8.212;2023-03-01T06:00:47;102411.75;;;-0.60
71630;BMP280;59479;51.902;8.212;2023-03-01T06:03:15;102413.22;;;-0.62
71630;BMP280;59479;51.902;8.212;2023-03-01T06:05:41;102414.00;;;-0.63
71630;BMP280;59479;51.902;8.212;2023-03-01T06:08:08;102417.09;;;-0.65
71630;BMP280;59479;51.902;8.212;2023-03-01T06:10:34;102423.53;;;-0.67
71630;BMP280;59479;51.902;8.212;2023-03-01T06:12:59;102419.38;;;-0.68
71630;BMP280;59479;51.902;8.212;2023-03-01T06:15:25;102421.72;;;-0.70
71630;BMP280;59479;51.902;8.212;2023-03-01T06:17:51;102424.19;;;-0.70
71630;BMP280;59479;51.902;8.212;2023-03-01T06:20:19;102435.53;;;-0.72
71630;BMP280;59479;51.902;8.212;2023-03-01T06:22:45;102433.00;;;-0.73
71630;BMP280;59479;51.902;8.212;2023-03-01T06:25:13;102433.63;;;-0.76
71630;BMP280;59479;51.902;8.212;2023-03-01T06:27:39;102435.13;;;-0.78
71630;BMP280;59479;51.902;8.212;2023-03-01T06:30:05;102423.75;;;-0.76
71630;BMP280;59479;51.902;8.212;2023-03-01T06:32:32;102425.25;;;-0.78
71630;BMP280;59479;51.902;8.212;2023-03-01T06:34:57;102418.81;;;-0.76
71630;BMP280;59479;51.902;8.212;2023-03-01T06:37:24;102429.75;;;-0.72
71630;BMP280;59479;51.902;8.212;2023-03-01T06:39:49;102426.56;;;-0.71
71630;BMP280;59479;51.902;8.212;2023-03-01T06:42:15;102428.91;;;-0.73
71630;BMP280;59479;51.902;8.212;2023-03-01T06:44:40;102424.19;;;-0.70
71630;BMP280;59479;51.902;8.212;2023-03-01T06:47:05;102427.41;;;-0.71
71630;BMP280;59479;51.902;8.212;2023-03-01T06:49:31;102419.25;;;-0.70
71630;BMP280;59479;51.902;8.212;2023-03-01T06:51:56;102417.75;;;-0.68
71630;BMP280;59479;51.902;8.212;2023-03-01T06:54:22;102415.41;;;-0.66
71630;BMP280;59479;51.902;8.212;2023-03-01T06:56:49;102420.44;;;-0.65
71630;BMP280;59479;51.902;8.212;2023-03-01T06:59:15;102421.41;;;-0.63
71630;BMP280;59479;51.902;8.212;2023-03-01T07:01:41;102414.22;;;-0.60
71630;BMP280;59479;51.902;8.212;2023-03-01T07:04:06;102413.81;;;-0.54
71630;BMP280;59479;51.902;8.212;2023-03-01T07:06:32;102405.84;;;-0.50
71630;BMP280;59479;51.902;8.212;2023-03-01T07:08:57;102414.44;;;-0.45
71630;BMP280;59479;51.902;8.212;2023-03-01T07:11:22;102413.03;;;-0.42
71630;BMP280;59479;51.902;8.212;2023-03-01T07:13:48;102403.16;;;-0.42
71630;BMP280;59479;51.902;8.212;2023-03-01T07:16:13;102413.03;;;-0.42
71630;BMP280;59479;51.902;8.212;2023-03-01T07:18:40;102399.09;;;-0.42
71630;BMP280;59479;51.902;8.212;2023-03-01T07:21:07;102392.00;;;-0.37
71630;BMP280;59479;51.902;8.212;2023-03-01T07:23:32;102389.63;;;-0.36
71630;BMP280;59479;51.902;8.212;2023-03-01T07:25:58;102395.25;;;-0.38
71630;BMP280;59479;51.902;8.212;2023-03-01T07:28:23;102399.97;;;-0.41
71630;BMP280;59479;51.902;8.212;2023-03-01T07:30:48;102399.53;;;-0.36
71630;BMP280;59479;51.902;8.212;2023-03-01T07:33:14;102393.94;;;-0.33
71630;BMP280;59479;51.902;8.212;2023-03-01T07:35:39;102395.44;;;-0.35
71630;BMP280;59479;51.902;8.212;2023-03-01T07:38:05;102391.47;;;-0.33
71630;BMP280;59479;51.902;8.212;2023-03-01T07:40:30;102390.72;;;-0.32
71630;BMP280;59479;51.902;8.212;2023-03-01T07:42:58;102386.84;;;-0.29
71630;BMP280;59479;51.902;8.212;2023-03-01T07:45:24;102383.09;;;-0.24
71630;BMP280;59479;51.902;8.212;2023-03-01T07:47:51;102384.25;;;-0.19
71630;BMP280;59479;51.902;8.212;2023-03-01T07:50:19;102378.47;;;-0.19
71630;BMP280;59479;51.902;8.212;2023-03-01T07:52:45;102383.06;;;-0.12
71630;BMP280;59479;51.902;8.212;2023-03-01T07:55:11;102376.31;;;-0.15
71630;BMP280;59479;51.902;8.212;2023-03-01T07:57:36;102386.63;;;-0.09
71630;BMP280;59479;51.902;8.212;2023-03-01T08:00:02;102382.53;;;-0.08
71630;BMP280;59479;51.902;8.212;2023-03-01T08:02:27;102389.63;;;-0.01
71630;BMP280;59479;51.902;8.212;2023-03-01T08:04:52;102382.00;;;0.07
71630;BMP280;59479;51.902;8.212;2023-03-01T08:07:17;102378.97;;;0.11
71630;BMP280;59479;51.902;8.212;2023-03-01T08:09:43;102381.66;;;0.14
71630;BMP280;59479;51.902;8.212;2023-03-01T08:12:08;102392.81;;;0.20
71630;BMP280;59479;51.902;8.212;2023-03-01T08:14:33;102394.94;;;0.27
71630;BMP280;59479;51.902;8.212;2023-03-01T08:16:59;102382.91;;;0.32
71630;BMP280;59479;51.902;8.212;2023-03-01T08:19:24;102389.09;;;0.38
71630;BMP280;59479;51.902;8.212;2023-03-01T08:21:50;102389.97;;;0.39
71630;BMP280;59479;51.902;8.212;2023-03-01T08:24:15;102388.00;;;0.46
71630;BMP280;59479;51.902;8.212;2023-03-01T08:26:40;102380.56;;;0.57
71630;BMP280;59479;51.902;8.212;2023-03-01T08:29:06;102376.19;;;0.66
71630;BMP280;59479;51.902;8.212;2023-03-01T08:31:36;102382.09;;;0.68
71630;BMP280;59479;51.902;8.212;2023-03-01T08:34:05;102383.25;;;0.73
71630;BMP280;59479;51.902;8.212;2023-03-01T08:36:34;102376.66;;;0.85
71630;BMP280;59479;51.902;8.212;2023-03-01T08:39:00;102368.09;;;0.93
71630;BMP280;59479;51.902;8.212;2023-03-01T08:41:25;102367.09;;;1.02
71630;BMP280;59479;51.902;8.212;2023-03-01T08:43:50;102367.50;;;1.08
71630;BMP280;59479;51.902;8.212;2023-03-01T08:46:16;102361.97;;;1.12
71630;BMP280;59479;51.902;8.212;2023-03-01T08:48:41;102360.94;;;1.22
71630;BMP280;59479;51.902;8.212;2023-03-01T08:51:14;102360.69;;;1.30
71630;BMP280;59479;51.902;8.212;2023-03-01T08:53:41;102353.72;;;1.37
71630;BMP280;59479;51.902;8.212;2023-03-01T08:56:08;102363.81;;;1.40
71630;BMP280;59479;51.902;8.212;2023-03-01T08:58:33;102356.22;;;1.50
71630;BMP280;59479;51.902;8.212;2023-03-01T09:00:59;102357.63;;;1.60
71630;BMP280;59479;51.902;8.212;2023-03-01T09:03:25;102361.72;;;1.59
71630;BMP280;59479;51.902;8.212;2023-03-01T09:05:51;102353.16;;;1.67
71630;BMP280;59479;51.902;8.212;2023-03-01T09:08:17;102354.94;;;1.82
71630;BMP280;59479;51.902;8.212;2023-03-01T09:10:43;102356.28;;;1.90
71630;BMP280;59479;51.902;8.212;2023-03-01T09:13:08;102343.47;;;1.97
71630;BMP280;59479;51.902;8.212;2023-03-01T09:15:36;102339.56;;;2.01
71630;BMP280;59479;51.902;8.212;2023-03-01T09:18:02;102332.09;;;2.13
71630;BMP280;59479;51.902;8.212;2023-03-01T09:20:27;102337.31;;;2.18
71630;BMP280;59479;51.902;8.212;2023-03-01T09:22:53;102333.66;;;2.26
71630;BMP280;59479;51.902;8.212;2023-03-01T09:25:18;102330.97;;;2.36
71630;BMP280;59479;51.902;8.212;2023-03-01T09:27:44;102333.81;;;2.42
71630;BMP280;59479;51.902;8.212;2023-03-01T09:30:09;102330.75;;;2.46
71630;BMP280;59479;51.902;8.212;2023-03-01T09:32:35;102336.16;;;2.53
71630;BMP280;59479;51.902;8.212;2023-03-01T09:35:00;102323.50;;;2.63
71630;BMP280;59479;51.902;8.212;2023-03-01T09:37:26;102323.59;;;2.64
71630;BMP280;59479;51.902;8.212;2023-03-01T09:39:51;102323.50;;;2.63
71630;BMP280;59479;51.902;8.212;2023-03-01T09:42:17;102318.56;;;2.77
71630;BMP280;59479;51.902;8.212;2023-03-01T09:44:50;102307.19;;;2.81
71630;BMP280;59479;51.902;8.212;2023-03-01T09:47:28;102303.59;;;2.90
71630;BMP280;59479;51.902;8.212;2023-03-01T09:50:16;102312.75;;;2.91
71630;BMP280;59479;51.902;8.212;2023-03-01T09:53:02;102312.34;;;2.98
71630;BMP280;59479;51.902;8.212;2023-03-01T09:55:34;102302.13;;;3.08
71630;BMP280;59479;51.902;8.212;2023-03-01T10:07:07;102297.47;;;3.42
71630;BMP280;59479;51.902;8.212;2023-03-01T10:09:38;102292.31;;;3.39
71630;BMP280;59479;51.902;8.212;2023-03-01T10:12:09;102306.47;;;3.40
71630;BMP280;59479;51.902;8.212;2023-03-01T10:14:39;102297.34;;;3.55
71630;BMP280;59479;51.902;8.212;2023-03-01T10:17:17;102302.97;;;3.67
71630;BMP280;59479;51.902;8.212;2023-03-01T10:19:46;102297.16;;;3.67
71630;BMP280;59479;51.902;8.212;2023-03-01T10:24:40;102289.91;;;3.71
71630;BMP280;59479;51.902;8.212;2023-03-01T10:27:17;102292.19;;;3.82
71630;BMP280;59479;51.902;8.212;2023-03-01T10:32:18;102282.88;;;3.94
71630;BMP280;59479;51.902;8.212;2023-03-01T10:34:43;102282.38;;;4.00
71630;BMP280;59479;51.902;8.212;2023-03-01T10:37:12;102278.56;;;4.06
71630;BMP280;59479;51.902;8.212;2023-03-01T10:39:54;102271.16;;;4.08
71630;BMP280;59479;51.902;8.212;2023-03-01T10:42:26;102279.88;;;4.16
71630;BMP280;59479;51.902;8.212;2023-03-01T10:44:51;102282.69;;;4.21
71630;BMP280;59479;51.902;8.212;2023-03-01T10:47:20;102277.41;;;4.31
71630;BMP280;59479;51.902;8.212;2023-03-01T10:52:27;102269.63;;;4.41
71630;BMP280;59479;51.902;8.212;2023-03-01T10:55:42;102263.06;;;4.43
71630;BMP280;59479;51.902;8.212;2023-03-01T10:57:42;102262.34;;;4.46
71630;BMP280;59479;51.902;8.212;2023-03-01T11:00:56;102258.38;;;4.49
71630;BMP280;59479;51.902;8.212;2023-03-01T11:03:25;102251.88;;;4.51
71630;BMP280;59479;51.902;8.212;2023-03-01T11:05:55;102252.00;;;4.54
71630;BMP280;59479;51.902;8.212;2023-03-01T11:08:36;102249.38;;;4.51
71630;BMP280;59479;51.902;8.212;2023-03-01T11:11:29;102251.56;;;4.62
71630;BMP280;59479;51.902;8.212;2023-03-01T11:14:00;102246.41;;;4.58
71630;BMP280;59479;51.902;8.212;2023-03-01T11:16:35;102245.75;;;4.62
71630;BMP280;59479;51.902;8.212;2023-03-01T11:21:44;102245.66;;;4.76
71630;BMP280;59479;51.902;8.212;2023-03-01T11:24:14;102237.91;;;4.88
71630;BMP280;59479;51.902;8.212;2023-03-01T11:26:47;102241.88;;;4.84
71630;BMP280;59479;51.902;8.212;2023-03-01T11:29:27;102238.69;;;4.87
71630;BMP280;59479;51.902;8.212;2023-03-01T11:31:55;102232.94;;;4.88
71630;BMP280;59479;51.902;8.212;2023-03-01T11:34:32;102235.47;;;4.89
71630;BMP280;59479;51.902;8.212;2023-03-01T11:37:02;102235.41;;;4.88
71630;BMP280;59479;51.902;8.212;2023-03-01T11:39:36;102231.13;;;5.02
71630;BMP280;59479;51.902;8.212;2023-03-01T11:42:17;102228.59;;;5.01
71630;BMP280;59479;51.902;8.212;2023-03-01T11:44:46;102233.44;;;4.98
71630;BMP280;59479;51.902;8.212;2023-03-01T11:50:29;102234.06;;;5.11
71630;BMP280;59479;51.902;8.212;2023-03-01T11:53:29;102230.94;;;5.15
71630;BMP280;59479;51.902;8.212;2023-03-01T12:02:22;102212.84;;;5.19
71630;BMP280;59479;51.902;8.212;2023-03-01T12:10:45;102207.34;;;5.26
71630;BMP280;59479;51.902;8.212;2023-03-01T12:13:21;102200.28;;;5.35
71630;BMP280;59479;51.902;8.212;2023-03-01T12:16:13;102194.53;;;5.36
71630;BMP280;59479;51.902;8.212;2023-03-01T12:24:35;102180.81;;;5.45
71630;BMP280;59479;51.902;8.212;2023-03-01T12:32:47;102163.19;;;5.41
71630;BMP280;59479;51.902;8.212;2023-03-01T12:38:04;102162.44;;;5.43
71630;BMP280;59479;51.902;8.212;2023-03-01T12:40:34;102157.91;;;5.54
71630;BMP280;59479;51.902;8.212;2023-03-01T12:43:45;102151.63;;;5.62
71630;BMP280;59479;51.902;8.212;2023-03-01T12:51:14;102145.19;;;5.67
71630;BMP280;59479;51.902;8.212;2023-03-01T12:53:47;102133.00;;;5.73
71630;BMP280;59479;51.902;8.212;2023-03-01T12:56:17;102138.94;;;5.75
71630;BMP280;59479;51.902;8.212;2023-03-01T12:58:55;102132.06;;;5.71
71630;BMP280;59479;51.902;8.212;2023-03-01T13:04:35;102122.25;;;5.74
71630;BMP280;59479;51.902;8.212;2023-03-01T13:15:37;102117.50;;;5.98
71630;BMP280;59479;51.902;8.212;2023-03-01T13:21:03;102110.31;;;6.06
71630;BMP280;59479;51.902;8.212;2023-03-01T13:23:47;102097.72;;;6.03
71630;BMP280;59479;51.902;8.212;2023-03-01T13:26:17;102101.13;;;6.05
71630;BMP280;59479;51.902;8.212;2023-03-01T13:33:54;102096.81;;;6.21
71630;BMP280;59479;51.902;8.212;2023-03-01T13:44:25;102083.91;;;6.31
71630;BMP280;59479;51.902;8.212;2023-03-01T13:47:03;102085.72;;;6.35
71630;BMP280;59479;51.902;8.212;2023-03-01T13:49:57;102085.31;;;6.25
71630;BMP280;59479;51.902;8.212;2023-03-01T13:52:37;102077.22;;;6.30
71630;BMP280;59479;51.902;8.212;2023-03-01T13:58:31;102070.13;;;6.40
71630;BMP280;59479;51.902;8.212;2023-03-01T14:01:00;102077.03;;;6.46
71630;BMP280;59479;51.902;8.212;2023-03-01T14:03:31;102076.34;;;6.50
71630;BMP280;59479;51.902;8.212;2023-03-01T14:06:02;102071.91;;;6.43
71630;BMP280;59479;51.902;8.212;2023-03-01T14:08:30;102059.69;;;6.50
71630;BMP280;59479;51.902;8.212;2023-03-01T14:13:54;102067.25;;;6.52
71630;BMP280;59479;51.902;8.212;2023-03-01T14:19:17;102060.78;;;6.57
71630;BMP280;59479;51.902;8.212;2023-03-01T14:21:44;102054.00;;;6.53
71630;BMP280;59479;51.902;8.212;2023-03-01T14:24:19;102051.81;;;6.62
71630;BMP280;59479;51.902;8.212;2023-03-01T14:26:45;102050.22;;;6.64
71630;BMP280;59479;51.902;8.212;2023-03-01T14:29:36;102052.56;;;6.59
71630;BMP280;59479;51.902;8.212;2023-03-01T14:32:20;102036.25;;;6.68
71630;BMP280;59479;51.902;8.212;2023-03-01T14:34:48;102037.34;;;6.75
71630;BMP280;59479;51.902;8.212;2023-03-01T14:37:37;102023.72;;;6.67
71630;BMP280;59479;51.902;8.212;2023-03-01T14:40:27;102024.72;;;6.72
71630;BMP280;59479;51.902;8.212;2023-03-01T14:43:00;102019.59;;;6.68
71630;BMP280;59479;51.902;8.212;2023-03-01T14:45:32;102007.09;;;6.68
71630;BMP280;59479;51.902;8.212;2023-03-01T14:48:10;102017.09;;;6.68
71630;BMP280;59479;51.902;8.212;2023-03-01T14:50:45;102014.59;;;6.68
71630;BMP280;59479;51.902;8.212;2023-03-01T14:53:17;102012.19;;;6.70
71630;BMP280;59479;51.902;8.212;2023-03-01T14:56:16;101999.88;;;6.75
71630;BMP280;59479;51.902;8.212;2023-03-01T14:58:57;102001.72;;;6.80
71630;BMP280;59479;51.902;8.212;2023-03-01T15:01:23;102003.97;;;6.73
71630;BMP280;59479;51.902;8.212;2023-03-01T15:03:49;102004.88;;;6.75
71630;BMP280;59479;51.902;8.212;2023-03-01T15:06:20;102002.44;;;6.76
71630;BMP280;59479;51.902;8.212;2023-03-01T15:08:52;102004.69;;;6.70
71630;BMP280;59479;51.902;8.212;2023-03-01T15:11:33;101996.47;;;6.73
71630;BMP280;59479;51.902;8.212;2023-03-01T15:14:41;101990.50;;;6.69
71630;BMP280;59479;51.902;8.212;2023-03-01T15:17:30;101980.06;;;6.79
71630;BMP280;59479;51.902;8.212;2023-03-01T15:20:25;101979.81;;;6.73
71630;BMP280;59479;51.902;8.212;2023-03-01T15:22:56;101983.16;;;6.74
71630;BMP280;59479;51.902;8.212;2023-03-01T15:25:32;101980.94;;;6.81
71630;BMP280;59479;51.902;8.212;2023-03-01T15:28:00;101981.72;;;6.80
71630;BMP280;59479;51.902;8.212;2023-03-01T15:30:32;101979.59;;;6.89
71630;BMP280;59479;51.902;8.212;2023-03-01T15:35:54;101977.34;;;6.97
71630;BMP280;59479;51.902;8.212;2023-03-01T15:38:36;101974.84;;;6.97
71630;BMP280;59479;51.902;8.212;2023-03-01T15:41:48;101972.28;;;6.95
71630;BMP280;59479;51.902;8.212;2023-03-01T15:44:29;101967.47;;;7.00
71630;BMP280;59479;51.902;8.212;2023-03-01T15:46:58;101975.59;;;6.94
71630;BMP280;59479;51.902;8.212;2023-03-01T15:49:41;101969.78;;;6.95
71630;BMP280;59479;51.902;8.212;2023-03-01T15:52:21;101961.56;;;6.98
71630;BMP280;59479;51.902;8.212;2023-03-01T15:55:01;101960.59;;;6.94
71630;BMP280;59479;51.902;8.212;2023-03-01T15:57:35;101964.91;;;6.98
71630;BMP280;59479;51.902;8.212;2023-03-01T16:00:13;101965.59;;;6.94
71630;BMP280;59479;51.902;8.212;2023-03-01T16:02:46;101959.59;;;6.89